createdAt,value
2023-06-11T00:00:58.980Z,77.91
2023-06-11T00:11:22.967Z,77.29
2023-06-11T00:21:26.442Z,77.72
2023-06-11T00:31:28.827Z,77.32
2023-06-11T00:41:32.652Z,76.99
2023-06-11T00:51:35.984Z,76.98
2023-06-11T01:01:47.226Z,76.97
2023-06-11T01:11:56.454Z,77.22
2023-06-11T01:22:05.300Z,76.64
2023-06-11T01:32:08.345Z,77.46
2023-06-11T07:59:16.809Z,50.76
2023-06-11T08:09:19.258Z,47.61
2023-06-11T08:19:21.892Z,47.98
2023-06-11T08:29:24.394Z,47.11
2023-06-11T08:39:27.189Z,48.54
2023-06-11T08:49:31.784Z,47.13
2023-06-11T08:59:34.193Z,47.03
2023-06-11T09:09:37.178Z,46.33
2023-06-11T09:19:39.644Z,45.00
2023-06-11T09:29:45.365Z,44.46
2023-06-11T09:39:48.660Z,44.17
2023-06-11T09:49:52.386Z,41.48
2023-06-11T09:59:55.324Z,42.98
2023-06-11T10:09:58.092Z,41.86
2023-06-11T10:20:00.819Z,40.59
2023-06-11T10:30:03.911Z,42.07
2023-06-11T10:40:07.434Z,41.24
2023-06-11T10:50:13.150Z,39.51
2023-06-11T11:00:15.847Z,41.49
2023-06-11T11:10:20.890Z,42.31
2023-06-11T11:20:23.444Z,40.43
2023-06-11T11:30:29.972Z,40.35
2023-06-11T11:40:32.372Z,41.50
2023-06-11T11:50:35.368Z,39.09
2023-06-11T12:00:46.103Z,40.54
2023-06-11T12:10:49.423Z,39.31
2023-06-11T12:20:52.739Z,37.54
2023-06-11T12:30:55.146Z,33.13
2023-06-11T12:40:57.746Z,31.99
2023-06-11T12:51:00.964Z,35.20
2023-06-11T13:01:04.509Z,35.03
2023-06-11T13:11:07.110Z,36.01
2023-06-11T13:21:09.511Z,36.80
2023-06-11T13:31:12.695Z,39.74
2023-06-11T13:41:15.231Z,37.23
2023-06-11T13:51:17.646Z,37.69
2023-06-11T14:01:20.322Z,37.36
2023-06-11T14:11:25.310Z,34.37
2023-06-11T14:21:27.752Z,35.11
2023-06-11T14:31:30.164Z,37.47
2023-06-11T14:41:32.560Z,39.16
2023-06-11T14:51:35.000Z,34.81
2023-06-11T15:01:37.935Z,35.04
2023-06-11T15:11:40.326Z,36.63
2023-06-11T15:21:42.753Z,36.79
2023-06-11T15:31:45.329Z,35.07
2023-06-11T15:41:47.772Z,36.26
2023-06-11T15:51:50.209Z,37.09
2023-06-11T16:01:52.783Z,37.22
2023-06-11T16:11:55.571Z,36.21
2023-06-11T16:21:57.978Z,36.86
2023-06-11T16:32:00.506Z,35.05
2023-06-11T16:42:03.771Z,37.92
2023-06-11T16:52:06.453Z,37.01
2023-06-11T17:02:08.818Z,36.98
2023-06-11T17:12:12.503Z,35.41
